createdAt,value
2019-03-30T00:02:11.060Z,39.10
2019-03-30T00:04:42.478Z,40.93
2019-03-30T00:07:12.691Z,41.20
2019-03-30T00:09:42.991Z,40.27
2019-03-30T00:12:13.273Z,37.42
2019-03-30T00:14:43.618Z,37.07
2019-03-30T00:17:13.870Z,37.33
2019-03-30T00:19:44.370Z,36.97
2019-03-30T00:22:14.714Z,39.13
2019-03-30T00:24:45.045Z,39.67
2019-03-30T00:27:15.302Z,40.67
2019-03-30T00:29:45.632Z,47.93
2019-03-30T00:32:15.921Z,43.97
2019-03-30T00:34:46.150Z,42.50
2019-03-30T00:37:16.387Z,50.20
2019-03-30T00:39:46.657Z,48.77
2019-03-30T00:42:16.928Z,38.53
2019-03-30T00:44:47.196Z,43.67
2019-03-30T00:47:17.467Z,37.10
2019-03-30T00:49:49.254Z,37.20
2019-03-30T00:52:19.648Z,48.97
2019-03-30T00:54:49.883Z,44.13
2019-03-30T00:57:20.164Z,42.10
2019-03-30T00:59:50.455Z,42.97
2019-03-30T01:02:20.730Z,42.33
2019-03-30T01:04:52.188Z,47.93
2019-03-30T01:07:22.538Z,40.87
2019-03-30T01:09:52.792Z,45.10
2019-03-30T01:12:23.122Z,46.53
2019-03-30T01:14:53.428Z,43.17
2019-03-30T01:17:23.773Z,41.97
2019-03-30T01:20:02.666Z,42.33
2019-03-30T01:22:25.998Z,44.80
2019-03-30T01:24:56.227Z,38.73
2019-03-30T01:27:26.495Z,38.73
2019-03-30T01:29:56.851Z,40.77
2019-03-30T01:32:27.092Z,38.93
2019-03-30T01:34:57.430Z,38.63
2019-03-30T01:37:27.675Z,34.83
2019-03-30T01:39:57.917Z,35.07
2019-03-30T01:42:28.346Z,36.27
2019-03-30T01:44:58.607Z,40.23
2019-03-30T01:47:28.882Z,39.90
2019-03-30T01:49:59.159Z,40.27
2019-03-30T01:52:29.409Z,39.97
2019-03-30T01:54:59.694Z,38.47
2019-03-30T01:57:29.955Z,40.13
2019-03-30T02:00:00.304Z,42.30
2019-03-30T02:02:30.648Z,36.23
2019-03-30T02:05:00.911Z,44.33
2019-03-30T02:07:31.308Z,40.80
2019-03-30T02:10:01.643Z,39.00
2019-03-30T02:12:31.872Z,34.37
2019-03-30T02:15:02.207Z,36.80
2019-03-30T02:17:32.533Z,34.43
2019-03-30T02:20:02.865Z,36.80
2019-03-30T02:22:33.145Z,38.30
2019-03-30T02:25:04.972Z,41.10
2019-03-30T02:27:35.270Z,41.77
2019-03-30T02:30:05.920Z,33.97
2019-03-30T02:32:36.362Z,42.67
2019-03-30T02:35:06.738Z,34.30
2019-03-30T02:37:36.941Z,33.47
2019-03-30T02:40:07.344Z,35.30
2019-03-30T02:42:37.608Z,33.93
2019-03-30T02:45:07.917Z,35.50
2019-03-30T02:47:38.278Z,37.83
2019-03-30T02:50:08.609Z,38.23
2019-03-30T02:52:38.862Z,34.53
2019-03-30T02:55:12.573Z,34.90
2019-03-30T02:57:42.254Z,36.13
2019-03-30T03:00:14.103Z,30.17
2019-03-30T03:02:44.533Z,32.80
2019-03-30T03:05:15.839Z,31.37
2019-03-30T03:07:46.149Z,40.27
2019-03-30T03:10:16.488Z,31.73
2019-03-30T03:12:46.798Z,31.43
2019-03-30T03:15:17.172Z,34.07
2019-03-30T03:17:47.518Z,31.67
2019-03-30T03:20:17.871Z,33.53
2019-03-30T03:22:48.273Z,34.03
2019-03-30T03:25:18.492Z,33.40
2019-03-30T03:27:48.811Z,34.93
2019-03-30T03:30:19.287Z,29.43
2019-03-30T03:32:49.594Z,30.00
2019-03-30T03:35:19.941Z,36.03
2019-03-30T03:37:50.287Z,29.83
2019-03-30T03:40:20.627Z,32.57
2019-03-30T03:42:50.890Z,30.33
2019-03-30T03:45:21.151Z,29.47
2019-03-30T03:47:51.463Z,30.67
2019-03-30T03:50:40.699Z,40.40
2019-03-30T03:53:11.905Z,34.20
2019-03-30T03:55:42.261Z,33.13
2019-03-30T03:58:12.574Z,35.00
2019-03-30T04:00:42.923Z,31.80
2019-03-30T04:03:14.874Z,34.27
2019-03-30T04:05:46.552Z,26.83
2019-03-30T04:08:17.869Z,26.87
2019-03-30T04:10:48.536Z,35.43
2019-03-30T04:13:19.421Z,25.67
2019-03-30T04:15:49.811Z,29.43
2019-03-30T04:18:20.213Z,27.47
2019-03-30T04:20:50.470Z,28.73
2019-03-30T04:23:20.775Z,33.80
2019-03-30T04:25:51.059Z,27.43
2019-03-30T04:28:21.370Z,27.87
2019-03-30T04:30:51.645Z,30.83
2019-03-30T04:33:21.887Z,24.43
2019-03-30T04:35:52.161Z,23.40
2019-03-30T04:38:22.457Z,27.70
2019-03-30T04:40:53.837Z,26.37
2019-03-30T04:43:24.194Z,30.77
2019-03-30T04:45:54.425Z,26.93
2019-03-30T04:48:24.693Z,31.07
2019-03-30T04:50:55.039Z,25.03
2019-03-30T04:53:25.299Z,29.50
2019-03-30T04:55:55.635Z,22.83
2019-03-30T04:58:25.955Z,23.27
2019-03-30T05:00:56.262Z,25.53
2019-03-30T05:03:26.538Z,23.87
2019-03-30T05:05:56.807Z,24.93
2019-03-30T05:08:27.106Z,22.97
2019-03-30T05:10:57.354Z,25.97
2019-03-30T05:13:27.620Z,24.17
2019-03-30T05:15:57.868Z,23.90
2019-03-30T05:18:28.197Z,24.27
2019-03-30T05:20:58.459Z,24.43
2019-03-30T05:23:28.739Z,23.93
2019-03-30T05:25:59.022Z,23.70
2019-03-30T05:28:29.286Z,22.43
2019-03-30T05:30:59.573Z,23.67
2019-03-30T05:33:29.788Z,24.30
2019-03-30T05:36:00.073Z,23.83
2019-03-30T05:38:30.488Z,20.93
2019-03-30T05:41:00.756Z,24.40
2019-03-30T05:43:31.062Z,26.70
2019-03-30T05:46:01.330Z,22.40
2019-03-30T05:48:31.608Z,26.63
2019-03-30T05:51:01.899Z,29.30
2019-03-30T05:53:32.113Z,27.63
2019-03-30T05:56:03.166Z,34.30
2019-03-30T05:58:33.450Z,26.23
2019-03-30T06:01:04.546Z,24.97
2019-03-30T06:03:34.943Z,33.60
2019-03-30T06:06:05.261Z,26.03
2019-03-30T06:08:35.504Z,27.97
2019-03-30T06:11:05.786Z,31.87
2019-03-30T06:13:36.148Z,33.13
2019-03-30T06:16:06.399Z,32.43
2019-03-30T06:18:36.653Z,36.27
2019-03-30T06:21:06.888Z,28.83
2019-03-30T06:23:37.122Z,32.47
2019-03-30T06:26:07.408Z,38.53
2019-03-30T06:28:37.661Z,27.13
2019-03-30T06:31:07.971Z,36.27
2019-03-30T06:33:38.241Z,39.30
2019-03-30T06:36:08.604Z,33.93
2019-03-30T06:38:38.874Z,33.47
2019-03-30T06:41:09.220Z,39.07
2019-03-30T06:43:39.537Z,36.60
2019-03-30T06:46:09.871Z,36.23
2019-03-30T06:48:40.127Z,40.17
2019-03-30T06:51:10.473Z,35.97
2019-03-30T06:53:40.758Z,36.20
2019-03-30T06:56:12.049Z,35.07
2019-03-30T06:58:42.284Z,37.23
2019-03-30T07:01:12.625Z,26.30
2019-03-30T07:03:43.425Z,27.23
2019-03-30T07:06:14.356Z,24.47
2019-03-30T07:08:45.885Z,30.63
2019-03-30T07:11:21.360Z,28.97
2019-03-30T07:13:50.290Z,33.10
2019-03-30T07:16:20.738Z,31.37
2019-03-30T07:18:51.700Z,36.03
2019-03-30T07:21:21.974Z,36.00
2019-03-30T07:23:52.279Z,31.17
2019-03-30T07:26:22.609Z,30.37
2019-03-30T07:28:52.996Z,30.37
2019-03-30T07:31:23.371Z,36.97
2019-03-30T07:33:53.712Z,39.67
2019-03-30T07:36:24.921Z,31.77
2019-03-30T07:38:55.184Z,29.40
2019-03-30T07:41:25.721Z,37.50
2019-03-30T07:43:55.994Z,28.37
2019-03-30T07:46:26.367Z,29.30
2019-03-30T07:48:56.615Z,32.70
2019-03-30T07:51:26.961Z,30.77
2019-03-30T07:53:57.280Z,30.00
2019-03-30T07:56:27.591Z,36.10
2019-03-30T07:58:59.122Z,24.77
2019-03-30T08:01:29.537Z,25.70
2019-03-30T08:03:59.893Z,27.63
2019-03-30T08:06:30.157Z,28.27
2019-03-30T08:09:00.404Z,28.50
2019-03-30T08:11:30.663Z,27.27
2019-03-30T08:14:01.112Z,29.33
2019-03-30T08:16:31.469Z,27.17
2019-03-30T08:19:01.759Z,28.10
2019-03-30T08:21:32.057Z,25.07
2019-03-30T08:24:04.518Z,27.00
2019-03-30T08:26:35.763Z,29.73
2019-03-30T08:29:06.317Z,29.90
2019-03-30T08:31:36.831Z,27.03
2019-03-30T08:34:08.554Z,25.87
2019-03-30T08:36:38.934Z,24.83
2019-03-30T08:39:12.350Z,25.20
2019-03-30T08:41:43.112Z,27.50
2019-03-30T08:44:13.508Z,42.33
2019-03-30T08:46:43.769Z,26.67
2019-03-30T08:49:14.094Z,23.37
2019-03-30T08:51:44.585Z,21.80
2019-03-30T08:54:14.884Z,21.40
2019-03-30T08:56:45.250Z,18.20
2019-03-30T08:59:15.551Z,21.13
2019-03-30T09:01:45.884Z,19.83
2019-03-30T09:04:18.394Z,18.30
2019-03-30T09:06:48.710Z,16.37
2019-03-30T09:09:21.223Z,14.80
2019-03-30T09:11:54.657Z,18.47
2019-03-30T09:14:25.316Z,15.67
2019-03-30T09:16:55.656Z,17.50
2019-03-30T09:19:25.977Z,14.50
2019-03-30T09:21:56.341Z,16.67
2019-03-30T09:24:26.608Z,11.73
2019-03-30T09:26:56.858Z,14.93
2019-03-30T09:29:27.203Z,15.70
2019-03-30T09:31:57.487Z,17.67
2019-03-30T09:34:27.714Z,12.80
2019-03-30T09:36:57.993Z,14.50
2019-03-30T09:39:28.254Z,13.80
2019-03-30T09:41:58.516Z,12.93
2019-03-30T09:44:28.771Z,14.63
2019-03-30T09:46:59.024Z,12.33
2019-03-30T09:49:29.244Z,11.97
2019-03-30T09:51:59.496Z,12.20
2019-03-30T09:54:29.854Z,12.07
2019-03-30T09:57:00.108Z,14.20
2019-03-30T09:59:30.367Z,16.57
2019-03-30T10:02:00.801Z,15.43
2019-03-30T10:04:31.192Z,12.27
2019-03-30T10:07:01.416Z,11.97
2019-03-30T10:09:31.701Z,11.97
2019-03-30T10:12:01.938Z,13.47
2019-03-30T10:14:32.219Z,11.37
2019-03-30T10:17:02.539Z,14.93
2019-03-30T10:19:32.875Z,10.57
2019-03-30T10:22:03.140Z,11.87
2019-03-30T10:24:38.350Z,12.70
2019-03-30T10:27:05.548Z,11.03
2019-03-30T10:29:35.830Z,12.27
2019-03-30T10:32:06.075Z,11.67
2019-03-30T10:34:39.464Z,12.87
2019-03-30T10:37:08.279Z,12.60
2019-03-30T10:39:38.494Z,14.83
2019-03-30T10:42:08.746Z,11.20
2019-03-30T10:44:39.016Z,10.50
2019-03-30T10:47:09.228Z,10.47
2019-03-30T10:49:39.539Z,10.07
2019-03-30T10:52:09.774Z,11.63
2019-03-30T10:54:51.965Z,10.90
2019-03-30T10:57:11.933Z,9.17
2019-03-30T10:59:42.264Z,9.23
2019-03-30T11:02:12.522Z,11.47
2019-03-30T11:04:42.771Z,13.27
2019-03-30T11:07:13.040Z,10.97
2019-03-30T11:09:43.300Z,13.37
2019-03-30T11:12:13.574Z,11.43
2019-03-30T11:14:43.811Z,12.67
2019-03-30T11:17:14.041Z,9.33
2019-03-30T11:19:44.319Z,11.90
2019-03-30T11:22:14.566Z,8.03
2019-03-30T11:24:44.841Z,8.27
2019-03-30T11:27:18.459Z,15.10
2019-03-30T11:29:48.758Z,10.07
2019-03-30T11:32:19.126Z,10.17
2019-03-30T11:34:49.398Z,8.70
2019-03-30T11:37:19.691Z,10.37
2019-03-30T11:39:51.028Z,7.90
2019-03-30T11:42:21.245Z,10.03
2019-03-30T11:44:51.603Z,13.43
2019-03-30T11:47:21.832Z,9.63
2019-03-30T11:49:52.144Z,9.23
2019-03-30T11:52:22.377Z,8.23
2019-03-30T11:54:52.673Z,8.07
2019-03-30T11:57:22.927Z,10.00
2019-03-30T11:59:53.213Z,12.53
2019-03-30T12:02:28.226Z,9.27
2019-03-30T12:04:55.438Z,8.53
2019-03-30T12:07:25.662Z,9.57
2019-03-30T12:09:55.891Z,8.47
2019-03-30T12:12:26.121Z,10.03
2019-03-30T12:14:56.364Z,6.17
2019-03-30T12:17:26.576Z,6.93
2019-03-30T12:19:56.825Z,10.73
2019-03-30T12:22:27.049Z,9.27
2019-03-30T12:24:57.281Z,9.13
2019-03-30T12:27:27.520Z,9.67
2019-03-30T12:29:57.782Z,8.50
2019-03-30T12:32:28.126Z,10.90
2019-03-30T12:34:58.440Z,7.53
2019-03-30T12:37:28.807Z,8.93
2019-03-30T12:39:59.117Z,7.03
2019-03-30T12:42:29.468Z,10.80
2019-03-30T12:44:59.742Z,9.67
2019-03-30T12:47:30.094Z,8.00
2019-03-30T12:50:00.406Z,7.23
2019-03-30T12:52:30.831Z,10.33
2019-03-30T12:55:01.160Z,6.97
2019-03-30T12:57:34.844Z,8.50
2019-03-30T13:00:05.417Z,8.23
2019-03-30T13:02:35.774Z,7.73
2019-03-30T13:05:07.611Z,10.23
2019-03-30T13:07:38.042Z,7.23
2019-03-30T13:10:08.550Z,8.63
2019-03-30T13:12:38.826Z,7.97
2019-03-30T13:15:09.208Z,8.73
2019-03-30T13:17:39.459Z,8.63
2019-03-30T13:20:09.930Z,9.70
2019-03-30T13:22:40.162Z,9.27
2019-03-30T13:25:10.537Z,7.00
2019-03-30T13:27:41.845Z,9.93
2019-03-30T13:30:12.496Z,8.27
2019-03-30T13:32:42.832Z,11.97
2019-03-30T13:35:14.148Z,8.00
2019-03-30T13:37:44.442Z,8.57
2019-03-30T13:40:14.802Z,10.83
2019-03-30T13:42:45.080Z,9.07
2019-03-30T13:45:15.574Z,11.03
2019-03-30T13:47:46.031Z,6.17
2019-03-30T13:50:18.021Z,7.47
2019-03-30T13:52:48.334Z,7.37
2019-03-30T13:55:18.796Z,8.17
2019-03-30T13:57:49.032Z,6.57
2019-03-30T14:00:19.762Z,7.10
2019-03-30T14:02:50.068Z,6.80
2019-03-30T14:05:20.309Z,5.30
2019-03-30T14:07:50.604Z,5.30
2019-03-30T14:10:20.975Z,6.20
2019-03-30T14:12:51.242Z,7.13
2019-03-30T14:15:21.533Z,4.93
2019-03-30T14:17:51.858Z,6.23
2019-03-30T14:20:22.093Z,4.77
2019-03-30T14:22:52.325Z,4.87
2019-03-30T14:25:22.637Z,4.17
2019-03-30T14:27:52.919Z,5.23
2019-03-30T14:30:23.242Z,4.47
2019-03-30T14:32:53.505Z,3.87
2019-03-30T14:35:23.788Z,4.20
2019-03-30T14:37:54.030Z,4.00
2019-03-30T14:40:24.248Z,3.97
2019-03-30T14:42:54.472Z,4.23
2019-03-30T14:45:24.690Z,4.50
2019-03-30T14:47:57.783Z,6.23
2019-03-30T14:50:27.034Z,6.27
2019-03-30T14:52:57.292Z,5.40
2019-03-30T14:55:28.090Z,5.47
2019-03-30T14:57:58.483Z,5.60
2019-03-30T15:00:28.827Z,4.73
2019-03-30T15:02:59.164Z,6.67
2019-03-30T15:05:29.490Z,5.73
2019-03-30T15:07:59.857Z,5.17
2019-03-30T15:10:30.153Z,6.03
2019-03-30T15:13:00.373Z,5.40
2019-03-30T15:15:30.702Z,6.07
2019-03-30T15:18:01.017Z,9.83
2019-03-30T15:20:33.668Z,11.03
2019-03-30T15:23:04.529Z,10.23
2019-03-30T15:25:34.766Z,9.80
2019-03-30T15:28:05.044Z,12.67
2019-03-30T15:30:35.401Z,13.23
2019-03-30T15:33:05.723Z,14.23
2019-03-30T15:35:36.061Z,18.23
2019-03-30T15:38:06.414Z,13.33
2019-03-30T15:40:37.061Z,14.43
2019-03-30T15:43:07.321Z,23.47
2019-03-30T15:45:37.552Z,19.60
2019-03-30T15:48:07.801Z,20.40
2019-03-30T15:50:38.078Z,17.63
2019-03-30T15:53:08.377Z,14.60
2019-03-30T15:55:38.631Z,17.90
2019-03-30T15:58:08.857Z,15.17
2019-03-30T16:00:39.260Z,16.03
2019-03-30T16:03:09.581Z,19.87
2019-03-30T16:05:39.794Z,21.67
2019-03-30T16:08:10.114Z,14.90
2019-03-30T16:10:40.393Z,22.13
2019-03-30T16:13:14.220Z,20.60
2019-03-30T16:15:44.562Z,17.73
2019-03-30T16:18:14.824Z,19.87
2019-03-30T16:20:45.081Z,21.27
2019-03-30T16:23:15.400Z,24.57
2019-03-30T16:25:49.853Z,20.27
2019-03-30T16:28:20.188Z,30.30
2019-03-30T16:30:50.716Z,24.67
2019-03-30T16:33:21.099Z,30.23
2019-03-30T16:35:53.005Z,20.17
2019-03-30T16:38:23.353Z,29.57
2019-03-30T16:40:53.654Z,19.30
2019-03-30T16:43:24.063Z,24.00
2019-03-30T16:45:54.403Z,31.17
2019-03-30T16:48:24.735Z,26.10
2019-03-30T16:50:55.006Z,22.47
2019-03-30T16:53:25.346Z,35.17
2019-03-30T16:55:55.666Z,30.30
2019-03-30T16:58:25.995Z,29.93
2019-03-30T17:00:57.161Z,27.07
2019-03-30T17:03:28.681Z,40.67
2019-03-30T17:05:59.035Z,25.03
2019-03-30T17:08:29.434Z,26.73
2019-03-30T17:10:59.683Z,30.90
2019-03-30T17:13:30.006Z,27.73
2019-03-30T17:16:00.346Z,29.50
2019-03-30T17:18:30.585Z,25.60
2019-03-30T17:21:00.901Z,25.50
2019-03-30T17:23:31.350Z,27.40
2019-03-30T17:26:01.607Z,25.10
2019-03-30T17:28:31.864Z,29.57
2019-03-30T17:31:02.175Z,30.00
2019-03-30T17:33:34.047Z,26.63
2019-03-30T17:36:04.547Z,28.97
2019-03-30T17:38:34.895Z,27.77
2019-03-30T17:41:05.120Z,26.73
2019-03-30T17:43:35.350Z,29.13
2019-03-30T17:46:05.851Z,28.40
2019-03-30T17:48:36.308Z,28.03
2019-03-30T17:51:06.549Z,31.67
2019-03-30T17:53:39.471Z,29.87
2019-03-30T17:56:08.901Z,29.20
2019-03-30T17:58:39.144Z,32.47
2019-03-30T18:01:09.538Z,33.03
2019-03-30T18:03:39.828Z,32.67
2019-03-30T18:06:10.122Z,33.90
2019-03-30T18:08:40.569Z,29.63
2019-03-30T18:11:10.936Z,30.40
2019-03-30T18:13:41.150Z,33.40
2019-03-30T18:16:11.431Z,32.43
2019-03-30T18:18:41.822Z,30.07
2019-03-30T18:21:12.157Z,35.90
2019-03-30T18:23:42.447Z,31.23
2019-03-30T18:26:12.802Z,34.40
2019-03-30T18:28:43.093Z,32.83
2019-03-30T18:31:13.395Z,38.87
2019-03-30T18:33:44.316Z,31.47
2019-03-30T18:36:15.713Z,33.47
2019-03-30T18:38:47.065Z,33.50
2019-03-30T18:41:17.442Z,33.60
2019-03-30T18:43:47.780Z,30.33
2019-03-30T18:46:18.047Z,34.00
2019-03-30T18:48:48.287Z,30.10
2019-03-30T18:51:18.593Z,31.30
2019-03-30T18:53:49.104Z,36.60
2019-03-30T18:56:19.370Z,30.57
2019-03-30T18:58:49.645Z,32.53
2019-03-30T19:01:20.866Z,30.53
2019-03-30T19:03:51.154Z,31.70
2019-03-30T19:06:21.417Z,33.63
2019-03-30T19:08:51.743Z,34.13
2019-03-30T19:11:21.983Z,29.40
2019-03-30T19:13:52.563Z,29.17
2019-03-30T19:16:23.051Z,27.60
2019-03-30T19:18:53.848Z,30.03
2019-03-30T19:21:24.151Z,30.37
2019-03-30T19:23:54.545Z,32.53
2019-03-30T19:26:24.898Z,29.93
2019-03-30T19:28:56.691Z,32.40
2019-03-30T19:31:27.198Z,28.67
2019-03-30T19:33:57.618Z,31.20
2019-03-30T19:36:27.993Z,34.60
2019-03-30T19:38:58.578Z,31.43
2019-03-30T19:41:28.806Z,30.73
2019-03-30T19:43:59.133Z,34.80
2019-03-30T19:46:29.535Z,30.33
2019-03-30T19:48:59.953Z,28.40
2019-03-30T19:51:30.234Z,28.33
2019-03-30T19:54:00.529Z,31.57
2019-03-30T19:56:30.803Z,29.63
2019-03-30T19:59:10.652Z,32.80
2019-03-30T20:01:33.239Z,31.13
2019-03-30T20:04:07.578Z,30.57
2019-03-30T20:06:36.343Z,27.67
2019-03-30T20:09:07.916Z,34.47
2019-03-30T20:11:39.889Z,29.20
2019-03-30T20:14:10.149Z,33.83
2019-03-30T20:16:42.334Z,30.63
2019-03-30T20:19:13.269Z,34.47
2019-03-30T20:21:43.798Z,31.93
2019-03-30T20:24:14.098Z,29.77
2019-03-30T20:26:44.347Z,31.07
2019-03-30T20:29:25.088Z,32.23
2019-03-30T20:31:46.750Z,29.97
2019-03-30T20:34:17.011Z,32.13
2019-03-30T20:36:47.391Z,33.20
2019-03-30T20:39:17.714Z,33.40
2019-03-30T20:41:48.149Z,29.80
2019-03-30T20:44:18.521Z,32.30
2019-03-30T20:46:48.846Z,33.23
2019-03-30T20:49:19.116Z,34.73
2019-03-30T20:51:49.394Z,29.07
2019-03-30T20:54:19.683Z,31.97
2019-03-30T20:56:49.940Z,33.60
2019-03-30T20:59:20.232Z,33.07
2019-03-30T21:01:50.683Z,34.50
2019-03-30T21:04:21.128Z,32.27
2019-03-30T21:06:51.674Z,32.60
2019-03-30T21:09:21.967Z,34.80
2019-03-30T21:11:52.258Z,32.57
2019-03-30T21:20:09.444Z,30.17
2019-03-30T21:22:40.513Z,31.53
2019-03-30T21:25:11.972Z,31.00
2019-03-30T21:27:42.297Z,35.23
2019-03-30T21:30:12.702Z,30.70
2019-03-30T21:32:43.140Z,34.73
2019-03-30T21:35:13.799Z,35.47
2019-03-30T21:37:44.055Z,32.53
2019-03-30T21:40:14.402Z,32.60
2019-03-30T21:42:44.683Z,34.27
2019-03-30T21:45:14.955Z,31.63
2019-03-30T21:47:45.250Z,35.90
2019-03-30T21:50:15.574Z,35.53
2019-03-30T21:52:45.877Z,35.50
2019-03-30T21:55:16.131Z,39.87
2019-03-30T21:57:46.418Z,40.70
2019-03-30T22:00:20.761Z,41.77
2019-03-30T22:02:51.136Z,39.83
2019-03-30T22:05:21.453Z,40.27
2019-03-30T22:07:51.837Z,35.07
2019-03-30T22:10:27.391Z,38.03
2019-03-30T22:12:57.719Z,32.93
2019-03-30T22:15:28.280Z,34.93
2019-03-30T22:17:58.622Z,32.30
2019-03-30T22:20:28.907Z,32.33
2019-03-30T22:22:59.346Z,34.20
2019-03-30T22:25:29.636Z,33.00
2019-03-30T22:27:59.885Z,32.03
2019-03-30T22:30:30.388Z,31.20
2019-03-30T22:33:00.704Z,31.03
2019-03-30T22:35:31.086Z,32.00
2019-03-30T22:38:01.346Z,30.03
2019-03-30T22:40:31.610Z,37.37
2019-03-30T22:43:01.873Z,36.63
2019-03-30T22:45:32.118Z,35.37
2019-03-30T22:48:02.473Z,31.83
2019-03-30T22:50:32.748Z,35.63
2019-03-30T22:53:03.109Z,34.87
2019-03-30T22:55:33.368Z,33.37
2019-03-30T22:58:04.467Z,31.27
2019-03-30T23:00:53.654Z,32.03
2019-03-30T23:03:25.705Z,35.00
2019-03-30T23:05:56.051Z,34.80
2019-03-30T23:08:26.373Z,33.37
2019-03-30T23:10:56.697Z,33.50
2019-03-30T23:13:26.966Z,32.67
2019-03-30T23:15:57.250Z,37.53
2019-03-30T23:18:27.674Z,34.47
2019-03-30T23:20:57.961Z,29.97
2019-03-30T23:23:28.277Z,30.43
2019-03-30T23:25:59.606Z,29.57
2019-03-30T23:28:30.935Z,33.13
2019-03-30T23:31:01.236Z,35.17
2019-03-30T23:33:31.684Z,35.07
2019-03-30T23:36:02.013Z,35.40
2019-03-30T23:38:32.268Z,33.10
2019-03-30T23:41:02.582Z,36.37
2019-03-30T23:43:32.927Z,30.43
2019-03-30T23:46:03.257Z,33.57
2019-03-30T23:48:33.520Z,36.13
2019-03-30T23:51:04.596Z,38.63
2019-03-30T23:53:34.922Z,34.63
2019-03-30T23:56:15.853Z,33.77
2019-03-30T23:58:46.139Z,32.23
